Costa Serena — ICAZ — position and weather

sailwx.info

Track history (hours):
 
Tides and Currents Weather Stations Pressure Air Temp Water Temp Dewpoint Dewpoint Depression Visibility Wind Speed Wind Dir Waves Ship Positions

Costa Serena

Last reported at 2019-Feb-14 12:14 UTC. Time now 2019-Feb-21 16:08 UTC.
Position N 31°06' E 122°25'.

Length 290 m; draft 8.2 m.

Type: Passenger vessel. MMSI: 247187600.

Date/timePositionNaut miles runAvg speedWind from/ knotsBaromVisibWave heightAir tempDewpointWater temp
2019-Feb-14 12:14N 31°06' E 122°25'414.2
2019-Feb-14 11:59N 31°06' E 122°21'2114.6
2019-Feb-14 10:33N 31°15' E 121°59'214.5
2019-Feb-14 10:23N 31°15' E 121°56'714.2
2019-Feb-14 09:53N 31°17' E 121°48'4 0.3
2019-Feb-13 21:23N 31°19' E 121°44'411.1
2019-Feb-13 20:59N 31°17' E 121°49'511.0
2019-Feb-13 20:30N 31°16' E 121°55'510.3
2019-Feb-13 20:00N 31°15' E 122°00'511.0
2019-Feb-13 19:30N 31°13' E 122°07'610.5
2019-Feb-13 18:59N 31°10' E 122°12'511.0
2019-Feb-13 18:30N 31°07' E 122°17'612.9
2019-Feb-13 18:01N 31°06' E 122°24'9511.8
2019-Feb-13 10:00N 31°30' E 124°12'14813.4 010 / 301025.010.8 8.0 8.016.0
2019-Feb-12 23:00N 32°36' E 126°48'   010 / 201027.0 6.0 6.012.0
2019-Feb-10 12:08N 31°06' E 122°25'912.3
2019-Feb-10 11:24N 31°08' E 122°15'1114.7
2019-Feb-10 10:40N 31°14' E 122°04'714.7
2019-Feb-10 10:10N 31°15' E 121°56'214.6
2019-Feb-10 10:00N 31°16' E 121°53'713.4
2019-Feb-10 09:30N 31°18' E 121°46'  
2019-Feb-07 19:00N 33°54' E 130°00'75 8.3 040 / 211025.0 11.011.016.0
2019-Feb-07 10:00N 32°42' E 129°36'28 1.9 010 / 181014.010.8 11.011.015.0
2019-Feb-06 19:00N 32°30' E 129°06'12213.5 210 / 171025.010.8 10.010.015.0
2019-Feb-06 10:00N 31°42' E 126°54'143 9.5 230 / 91025.0 9.0 9.015.0
2019-Feb-05 19:00N 31°06' E 124°12'9513.1 340 / 21025.0 9.0 9.015.0
2019-Feb-05 11:44N 31°06' E 122°21'413.0
2019-Feb-05 11:28N 31°07' E 122°17'1014.6
2019-Feb-05 10:46N 31°13' E 122°07'515.1
2019-Feb-05 10:27N 31°14' E 122°02'715.2
2019-Feb-05 10:00N 31°16' E 121°54'714.9
2019-Feb-05 09:30N 31°18' E 121°46'9 5.8
2019-Feb-05 08:00N 31°18' E 121°36'6 0.7 140 / 151020.010.8 8.0 8.015.0
2019-Feb-04 22:39N 31°19' E 121°43'214.7
2019-Feb-04 22:30N 31°18' E 121°45'510.2
2019-Feb-04 22:00N 31°16' E 121°51'5 9.8
2019-Feb-04 21:30N 31°15' E 121°56'5 9.6
2019-Feb-04 21:00N 31°14' E 122°02'5 9.2
2019-Feb-04 20:30N 31°13' E 122°07'5 9.7
2019-Feb-04 20:00N 31°10' E 122°12'510.1
2019-Feb-04 19:31N 31°07' E 122°16'510.6
2019-Feb-04 19:01N 31°06' E 122°23'  
Track history (hours):
 
Tides and Currents Weather Stations Pressure Air Temp Water Temp Dewpoint Dewpoint Depression Visibility Wind Speed Wind Dir Waves Ship Positions

Costa Serena

Last reported at 2019-Feb-14 12:14 UTC. Time now 2019-Feb-21 16:08 UTC.
Position N 31°06' E 122°25'.

Length 290 m; draft 8.2 m.

Type: Passenger vessel. MMSI: 247187600.

Date/timePositionNaut miles runAvg speedWind from/ knotsBaromVisibWave heightAir tempDewpointWater temp
2019-Feb-14 12:14N 31°06' E 122°25'414.2
2019-Feb-14 11:59N 31°06' E 122°21'2114.6
2019-Feb-14 10:33N 31°15' E 121°59'214.5
2019-Feb-14 10:23N 31°15' E 121°56'714.2
2019-Feb-14 09:53N 31°17' E 121°48'4 0.3
2019-Feb-13 21:23N 31°19' E 121°44'411.1
2019-Feb-13 20:59N 31°17' E 121°49'511.0
2019-Feb-13 20:30N 31°16' E 121°55'510.3
2019-Feb-13 20:00N 31°15' E 122°00'511.0
2019-Feb-13 19:30N 31°13' E 122°07'610.5
2019-Feb-13 18:59N 31°10' E 122°12'511.0
2019-Feb-13 18:30N 31°07' E 122°17'612.9
2019-Feb-13 18:01N 31°06' E 122°24'9511.8
2019-Feb-13 10:00N 31°30' E 124°12'14813.4 010 / 301025.010.8 8.0 8.016.0
2019-Feb-12 23:00N 32°36' E 126°48'   010 / 201027.0 6.0 6.012.0
2019-Feb-10 12:08N 31°06' E 122°25'912.3
2019-Feb-10 11:24N 31°08' E 122°15'1114.7
2019-Feb-10 10:40N 31°14' E 122°04'714.7
2019-Feb-10 10:10N 31°15' E 121°56'214.6
2019-Feb-10 10:00N 31°16' E 121°53'713.4
2019-Feb-10 09:30N 31°18' E 121°46'  
2019-Feb-07 19:00N 33°54' E 130°00'75 8.3 040 / 211025.0 11.011.016.0
2019-Feb-07 10:00N 32°42' E 129°36'28 1.9 010 / 181014.010.8 11.011.015.0
2019-Feb-06 19:00N 32°30' E 129°06'12213.5 210 / 171025.010.8 10.010.015.0
2019-Feb-06 10:00N 31°42' E 126°54'143 9.5 230 / 91025.0 9.0 9.015.0
2019-Feb-05 19:00N 31°06' E 124°12'9513.1 340 / 21025.0 9.0 9.015.0
2019-Feb-05 11:44N 31°06' E 122°21'413.0
2019-Feb-05 11:28N 31°07' E 122°17'1014.6
2019-Feb-05 10:46N 31°13' E 122°07'515.1
2019-Feb-05 10:27N 31°14' E 122°02'715.2
2019-Feb-05 10:00N 31°16' E 121°54'714.9
2019-Feb-05 09:30N 31°18' E 121°46'9 5.8
2019-Feb-05 08:00N 31°18' E 121°36'6 0.7 140 / 151020.010.8 8.0 8.015.0
2019-Feb-04 22:39N 31°19' E 121°43'214.7
2019-Feb-04 22:30N 31°18' E 121°45'510.2
2019-Feb-04 22:00N 31°16' E 121°51'5 9.8
2019-Feb-04 21:30N 31°15' E 121°56'5 9.6
2019-Feb-04 21:00N 31°14' E 122°02'5 9.2
2019-Feb-04 20:30N 31°13' E 122°07'5 9.7
2019-Feb-04 20:00N 31°10' E 122°12'510.1
2019-Feb-04 19:31N 31°07' E 122°16'510.6
2019-Feb-04 19:01N 31°06' E 122°23'  

Dump ship's entire track history